Time;durP1;ratioP1;P1;durP2;ratioP2;P2;SDS_P1;SDS_P2;PMS_P1;PMS_P2;Temp;Humidity;BMP_temperature;BMP_pressure;BME280_temperature;BME280_humidity;BME280_pressure;Samples;Min_cycle;Max_cycle;Signal;HPM_P1;HPM_P2
2021/12/16 00:01:41;;;;;;;29.55;15.82;;;8.40;99.90;;;;;;4988995;28;20072;-52
2021/12/16 00:09:00;;;;;;;40.10;19.02;;;8.20;99.90;;;;;;4970959;28;20077;-53
2021/12/16 00:35:50;;;;;;;31.10;16.42;;;7.90;99.90;;;;;;4997229;28;20056;-55
2021/12/16 00:38:17;;;;;;;30.00;17.30;;;8.00;99.90;;;;;;4993283;28;20411;-54
2021/12/16 00:40:43;;;;;;;28.95;16.65;;;7.90;99.90;;;;;;4994681;28;20100;-54
2021/12/16 00:43:52;;;;;;;33.28;17.50;;;7.90;99.90;;;;;;4987788;28;20076;-54
2021/12/16 00:49:03;;;;;;;35.33;17.40;;;7.90;99.90;;;;;;4992989;28;20050;-53
2021/12/16 00:56:56;;;;;;;36.08;18.38;;;7.90;99.90;;;;;;5011365;28;20042;-54
2021/12/16 01:08:28;;;;;;;33.13;17.65;;;8.00;99.90;;;;;;4990437;28;20041;-53
2021/12/16 01:33:36;;;;;;;37.35;19.05;;;7.90;99.90;;;;;;4986995;28;20038;-52
2021/12/16 01:33:45;;;;;;;40.15;19.33;;;8.00;99.90;;;;;;4973044;28;20054;-52
2021/12/16 01:36:28;;;;;;;34.80;18.55;;;8.00;99.90;;;;;;4975552;28;20149;-50
2021/12/16 01:47:13;;;;;;;32.88;18.58;;;7.80;99.90;;;;;;4972828;28;20053;-54
2021/12/16 01:57:27;;;;;;;41.10;20.33;;;7.80;99.90;;;;;;5010220;28;20050;-50
2021/12/16 02:00:02;;;;;;;36.35;19.23;;;7.80;99.90;;;;;;4994903;28;20057;-49
2021/12/16 02:02:41;;;;;;;39.15;20.55;;;7.80;99.90;;;;;;5013074;28;20038;-49
2021/12/16 02:10:38;;;;;;;42.83;21.80;;;7.90;99.90;;;;;;4991718;28;20057;-49
2021/12/16 02:27:25;;;;;;;40.58;21.30;;;7.90;99.90;;;;;;4973086;28;20081;-49
2021/12/16 02:36:45;;;;;;;36.20;20.85;;;7.90;99.90;;;;;;5066951;23;20122;-83
2021/12/16 02:39:19;;;;;;;41.13;22.10;;;7.90;99.90;;;;;;5039102;28;20081;-83
2021/12/16 02:41:47;;;;;;;39.88;22.17;;;8.00;99.90;;;;;;5038717;28;20379;-83
2021/12/16 02:49:29;;;;;;;39.08;22.70;;;8.00;99.90;;;;;;4999543;28;20053;-83
2021/12/16 02:51:56;;;;;;;40.78;21.10;;;8.00;99.90;;;;;;4998818;28;20048;-83
2021/12/16 02:54:23;;;;;;;35.63;20.63;;;8.00;99.90;;;;;;4999660;28;20049;-83
2021/12/16 02:56:49;;;;;;;38.35;20.58;;;8.00;99.90;;;;;;5000367;28;20046;-83
2021/12/16 02:59:18;;;;;;;38.33;21.83;;;8.00;99.90;;;;;;4998870;28;20038;-84
2021/12/16 03:01:47;;;;;;;37.33;20.60;;;8.00;99.90;;;;;;4998091;28;20045;-83
2021/12/16 03:04:15;;;;;;;37.80;20.77;;;8.00;99.90;;;;;;5007276;28;20055;-83
2021/12/16 03:06:43;;;;;;;37.28;21.10;;;8.00;99.90;;;;;;5012756;28;20124;-84
2021/12/16 03:09:12;;;;;;;36.00;21.58;;;8.00;99.90;;;;;;5005435;28;20037;-84
2021/12/16 03:12:40;;;;;;;36.22;20.00;;;8.00;99.90;;;;;;5017278;28;20037;-84
2021/12/16 03:14:29;;;;;;;35.78;21.25;;;8.10;99.90;;;;;;5017259;28;20060;-83
2021/12/16 03:19:55;;;;;;;35.72;20.27;;;8.10;99.90;;;;;;4998861;28;20049;-83
2021/12/16 03:22:45;;;;;;;36.17;20.27;;;8.00;99.90;;;;;;5015738;28;20049;-84
2021/12/16 03:27:59;;;;;;;37.15;20.73;;;8.00;99.90;;;;;;5017296;28;20060;-83
2021/12/16 03:30:42;;;;;;;37.55;21.02;;;8.10;99.90;;;;;;5017471;28;20466;-84
2021/12/16 03:36:03;;;;;;;38.30;20.85;;;8.10;99.90;;;;;;4997781;28;20088;-83
2021/12/16 03:38:30;;;;;;;40.10;21.13;;;8.10;99.90;;;;;;4997497;28;20077;-84
2021/12/16 03:40:56;;;;;;;38.22;21.17;;;8.10;99.90;;;;;;5001575;28;20038;-83
2021/12/16 03:43:22;;;;;;;39.08;21.10;;;8.20;99.90;;;;;;4988888;28;20050;-83
2021/12/16 03:48:46;;;;;;;37.40;21.63;;;8.10;99.90;;;;;;5008697;28;20099;-83
2021/12/16 03:51:18;;;;;;;33.25;20.92;;;8.10;99.90;;;;;;5008821;28;20064;-83
2021/12/16 03:53:46;;;;;;;39.17;21.92;;;8.10;99.90;;;;;;5010486;28;20045;-83
2021/12/16 03:56:13;;;;;;;36.00;21.45;;;8.10;99.90;;;;;;5009506;28;20049;-83
2021/12/16 03:58:39;;;;;;;35.58;21.73;;;8.10;99.90;;;;;;5020755;28;20104;-83
2021/12/16 04:01:11;;;;;;;40.80;22.10;;;8.20;99.90;;;;;;5046319;28;20041;-83
2021/12/16 04:03:37;;;;;;;35.30;20.10;;;8.20;99.90;;;;;;4988438;28;20278;-83
2021/12/16 04:06:03;;;;;;;33.55;20.30;;;8.20;99.90;;;;;;4982050;28;20318;-83
2021/12/16 04:08:29;;;;;;;37.28;21.10;;;8.20;99.90;;;;;;4997057;28;20029;-83
2021/12/16 04:11:05;;;;;;;38.88;21.27;;;8.20;99.90;;;;;;4996008;28;20057;-83
2021/12/16 04:13:53;;;;;;;39.97;21.67;;;8.20;99.90;;;;;;4995724;28;20148;-83
2021/12/16 04:16:23;;;;;;;37.72;21.08;;;8.20;99.90;;;;;;5009377;28;20038;-83
2021/12/16 04:18:49;;;;;;;39.72;21.42;;;8.20;99.90;;;;;;5017695;28;20037;-83
2021/12/16 04:21:15;;;;;;;39.15;21.83;;;8.20;99.90;;;;;;5024211;28;20069;-83
2021/12/16 04:23:41;;;;;;;34.17;20.25;;;8.20;99.90;;;;;;5029925;28;20042;-83
2021/12/16 04:26:07;;;;;;;39.65;21.38;;;8.30;99.90;;;;;;5025121;28;20037;-83
2021/12/16 04:28:33;;;;;;;39.88;21.55;;;8.30;99.90;;;;;;5026628;28;20044;-83
2021/12/16 04:30:59;;;;;;;38.45;21.05;;;8.30;99.90;;;;;;5008127;28;20045;-83
2021/12/16 04:33:26;;;;;;;39.83;19.73;;;8.30;99.90;;;;;;5002633;28;20081;-83
2021/12/16 04:35:51;;;;;;;42.20;21.67;;;8.30;99.90;;;;;;5007892;28;20097;-83
2021/12/16 04:38:17;;;;;;;38.30;21.38;;;8.30;99.90;;;;;;5006683;28;20073;-83
2021/12/16 04:40:48;;;;;;;39.15;21.23;;;8.30;99.90;;;;;;5006611;28;20396;-83
2021/12/16 04:43:20;;;;;;;39.97;21.35;;;8.30;99.90;;;;;;5006193;28;20330;-83
2021/12/16 04:45:46;;;;;;;36.80;21.70;;;8.30;99.90;;;;;;5003219;28;20061;-83
2021/12/16 04:48:13;;;;;;;38.95;22.05;;;8.30;99.90;;;;;;4996768;28;20041;-83
2021/12/16 04:50:38;;;;;;;36.75;21.05;;;8.30;99.90;;;;;;4995020;28;20406;-83
2021/12/16 04:53:04;;;;;;;40.58;22.35;;;8.30;99.90;;;;;;4994262;28;20038;-83
2021/12/16 04:55:30;;;;;;;35.83;21.77;;;8.30;99.90;;;;;;4994634;28;20411;-83
2021/12/16 04:57:55;;;;;;;37.83;21.60;;;8.30;99.90;;;;;;4994816;28;20038;-83
2021/12/16 05:00:23;;;;;;;37.20;21.27;;;8.30;99.90;;;;;;5003896;28;20025;-83
2021/12/16 05:02:50;;;;;;;40.08;21.73;;;8.40;99.90;;;;;;5014163;28;20049;-82
2021/12/16 05:05:16;;;;;;;36.53;21.38;;;8.40;99.90;;;;;;5014412;28;20048;-83
2021/12/16 05:07:43;;;;;;;41.20;22.85;;;8.40;99.90;;;;;;4998143;28;20045;-83
2021/12/16 05:10:12;;;;;;;39.47;21.67;;;8.40;99.90;;;;;;5013963;28;20037;-83
2021/12/16 05:12:42;;;;;;;42.45;23.20;;;8.40;99.90;;;;;;5009661;28;20046;-83
2021/12/16 05:15:18;;;;;;;37.00;22.05;;;8.40;99.90;;;;;;4994480;28;20061;-83
2021/12/16 05:17:48;;;;;;;41.28;22.55;;;8.40;99.90;;;;;;4994816;28;20050;-83
2021/12/16 05:20:22;;;;;;;36.42;21.58;;;8.40;99.90;;;;;;4994707;28;20038;-83
2021/12/16 05:28:04;;;;;;;38.72;22.38;;;8.40;99.90;;;;;;4993572;28;20052;-83
2021/12/16 05:30:31;;;;;;;39.33;21.15;;;8.40;99.90;;;;;;4994294;28;20050;-84
2021/12/16 05:32:57;;;;;;;37.67;22.23;;;8.40;99.90;;;;;;4977411;28;20396;-83
2021/12/16 05:35:24;;;;;;;39.13;22.52;;;8.50;99.90;;;;;;4993852;28;20099;-83
2021/12/16 05:37:50;;;;;;;38.90;21.98;;;8.40;99.90;;;;;;4993981;28;20125;-83
2021/12/16 05:40:23;;;;;;;33.08;21.08;;;8.40;99.90;;;;;;4977720;28;20536;-83
2021/12/16 05:42:54;;;;;;;43.05;22.48;;;8.40;99.90;;;;;;5003344;28;20046;-83
2021/12/16 05:45:21;;;;;;;36.70;21.17;;;8.40;99.90;;;;;;5009748;28;20723;-83
2021/12/16 05:47:46;;;;;;;42.72;21.77;;;8.40;99.90;;;;;;4994370;28;20050;-83
2021/12/16 05:50:12;;;;;;;36.78;21.45;;;8.50;99.90;;;;;;4993746;28;20492;-83
2021/12/16 05:52:39;;;;;;;38.00;20.77;;;8.40;99.90;;;;;;4992709;28;20590;-83
2021/12/16 05:55:06;;;;;;;34.33;20.15;;;8.40;99.90;;;;;;4999701;28;20120;-84
2021/12/16 05:57:33;;;;;;;39.45;21.73;;;8.40;99.90;;;;;;5009399;28;20046;-84
2021/12/16 05:59:59;;;;;;;42.35;21.42;;;8.40;99.90;;;;;;5018764;28;20045;-84
2021/12/16 06:02:25;;;;;;;39.40;22.27;;;8.40;99.90;;;;;;5015745;28;20049;-84
2021/12/16 06:04:51;;;;;;;35.45;20.73;;;8.40;99.90;;;;;;5011376;28;20049;-83
2021/12/16 06:07:20;;;;;;;42.78;22.45;;;8.40;99.90;;;;;;4993008;28;20073;-82
2021/12/16 06:09:46;;;;;;;39.70;22.25;;;8.40;99.90;;;;;;4994098;28;20100;-84
2021/12/16 06:12:13;;;;;;;41.88;21.98;;;8.30;99.90;;;;;;5001841;28;20399;-84
2021/12/16 06:27:56;;;;;;;32.33;19.73;;;8.40;99.90;;;;;;5012592;28;20053;-84
2021/12/16 06:30:30;;;;;;;38.90;22.35;;;8.40;99.90;;;;;;5013007;28;20045;-84
2021/12/16 06:32:58;;;;;;;29.13;18.63;;;8.40;99.90;;;;;;4987716;28;20045;-83
2021/12/16 06:35:24;;;;;;;32.47;19.13;;;8.50;99.90;;;;;;5007689;28;20042;-85
2021/12/16 06:37:50;;;;;;;37.05;21.23;;;8.50;99.90;;;;;;4980793;28;20049;-85
2021/12/16 06:40:17;;;;;;;31.55;20.25;;;8.50;99.90;;;;;;4993415;28;20038;-84
2021/12/16 06:42:43;;;;;;;37.22;20.00;;;8.50;99.90;;;;;;5002871;28;20089;-84
2021/12/16 06:45:16;;;;;;;28.95;18.75;;;8.50;99.90;;;;;;5003391;28;20064;-84
2021/12/16 06:47:57;;;;;;;39.88;20.75;;;8.50;99.90;;;;;;5012529;28;20040;-84
2021/12/16 06:53:11;;;;;;;34.97;21.30;;;8.50;99.90;;;;;;5012455;28;20045;-85
2021/12/16 06:55:44;;;;;;;38.60;21.25;;;8.50;99.90;;;;;;4985348;28;20036;-84
2021/12/16 07:01:06;;;;;;;39.78;21.58;;;8.50;99.90;;;;;;5007167;28;20068;-84
2021/12/16 07:03:45;;;;;;;35.42;20.95;;;8.50;99.90;;;;;;5002712;28;20045;-84
2021/12/16 07:06:11;;;;;;;35.17;19.55;;;8.40;99.90;;;;;;4995387;28;20504;-84
2021/12/16 07:08:37;;;;;;;37.45;19.35;;;8.50;99.90;;;;;;4999887;28;20415;-84
2021/12/16 07:11:03;;;;;;;34.97;20.42;;;8.50;99.90;;;;;;4996522;28;20052;-84
2021/12/16 07:13:35;;;;;;;33.30;19.38;;;8.40;99.90;;;;;;4998595;28;20045;-84
2021/12/16 07:16:00;;;;;;;34.75;19.50;;;8.40;99.90;;;;;;4996988;28;20057;-84
2021/12/16 07:18:26;;;;;;;33.72;19.00;;;8.30;99.90;;;;;;4997344;28;20034;-84
2021/12/16 07:20:52;;;;;;;33.53;19.50;;;8.30;99.90;;;;;;5006400;28;20052;-84
2021/12/16 07:23:17;;;;;;;30.45;19.48;;;8.20;99.90;;;;;;5030146;28;20506;-84
2021/12/16 07:25:43;;;;;;;31.73;19.00;;;8.20;99.90;;;;;;5020320;28;20115;-84
2021/12/16 07:28:09;;;;;;;32.15;19.38;;;8.10;99.90;;;;;;4989587;28;20088;-83
2021/12/16 07:30:37;;;;;;;32.97;20.35;;;8.00;99.90;;;;;;5000993;28;20052;-84
2021/12/16 07:33:04;;;;;;;32.67;19.63;;;8.00;99.90;;;;;;4999683;28;20033;-83
2021/12/16 07:35:30;;;;;;;34.50;19.58;;;8.00;99.90;;;;;;5006876;28;20446;-84
2021/12/16 07:37:56;;;;;;;36.25;20.65;;;7.90;99.90;;;;;;4983161;28;20041;-84
2021/12/16 07:40:25;;;;;;;36.05;20.52;;;7.90;99.90;;;;;;5003167;28;20084;-84
2021/12/16 07:43:24;;;;;;;34.88;19.88;;;7.90;99.90;;;;;;4996232;28;20479;-84
2021/12/16 07:45:46;;;;;;;38.25;21.38;;;7.90;99.90;;;;;;5005021;28;20052;-84
2021/12/16 07:48:16;;;;;;;39.85;20.83;;;7.90;99.90;;;;;;4997079;28;20037;-84
2021/12/16 07:50:46;;;;;;;35.53;20.67;;;7.90;99.90;;;;;;5011742;28;20388;-84
2021/12/16 07:53:12;;;;;;;48.75;21.40;;;7.90;99.90;;;;;;4999799;28;20037;-84
2021/12/16 07:55:41;;;;;;;41.80;20.80;;;7.90;99.90;;;;;;4995932;28;20045;-84
2021/12/16 07:58:06;;;;;;;61.05;22.80;;;7.90;99.90;;;;;;5007833;28;20399;-84
2021/12/16 08:00:35;;;;;;;61.33;22.67;;;7.90;99.90;;;;;;5012296;28;20129;-84
2021/12/16 08:03:03;;;;;;;56.13;23.63;;;7.90;99.90;;;;;;4983804;28;20046;-84
2021/12/16 08:05:32;;;;;;;107.35;23.27;;;7.80;99.90;;;;;;4997753;28;20051;-83
2021/12/16 08:07:58;;;;;;;75.10;23.45;;;7.80;99.90;;;;;;5015200;28;20046;-84
2021/12/16 08:10:24;;;;;;;84.22;24.20;;;7.80;99.90;;;;;;5008967;28;20161;-85
2021/12/16 08:12:50;;;;;;;147.40;23.42;;;7.80;99.90;;;;;;5009475;28;20099;-85
2021/12/16 08:15:17;;;;;;;163.40;24.95;;;7.70;99.90;;;;;;5007277;28;20049;-87
2021/12/16 08:17:43;;;;;;;181.65;23.77;;;7.70;99.90;;;;;;4996795;28;20033;-86
2021/12/16 08:20:11;;;;;;;98.22;23.58;;;7.60;99.90;;;;;;4980428;28;20046;-86
2021/12/16 08:22:37;;;;;;;119.03;22.48;;;7.60;99.90;;;;;;5014857;28;20041;-85
2021/12/16 08:25:04;;;;;;;167.15;25.23;;;7.50;99.90;;;;;;4999913;28;20053;-85
2021/12/16 08:27:33;;;;;;;179.82;25.13;;;7.50;99.90;;;;;;5013073;28;20046;-85
2021/12/16 08:29:59;;;;;;;53.38;21.50;;;7.50;99.90;;;;;;5025987;22;20513;-55
2021/12/16 08:32:24;;;;;;;91.68;23.25;;;7.50;99.90;;;;;;5020444;28;20072;-55
2021/12/16 08:34:50;;;;;;;102.97;21.95;;;7.50;99.90;;;;;;5021248;28;20453;-55
2021/12/16 08:37:15;;;;;;;88.88;21.35;;;7.50;99.90;;;;;;5019219;28;20215;-55
2021/12/16 08:39:42;;;;;;;86.55;19.80;;;7.60;99.90;;;;;;5023319;28;20068;-55
2021/12/16 08:42:09;;;;;;;46.22;17.83;;;7.60;99.90;;;;;;5020198;28;20042;-55
2021/12/16 08:44:35;;;;;;;78.40;19.20;;;7.50;99.90;;;;;;5018724;28;20038;-55
2021/12/16 08:47:08;;;;;;;78.22;18.05;;;7.50;99.90;;;;;;5026147;28;20033;-55
2021/12/16 08:49:35;;;;;;;76.38;19.00;;;7.60;99.90;;;;;;5023146;28;20060;-56
2021/12/16 08:52:06;;;;;;;56.28;16.73;;;7.50;99.90;;;;;;5022142;28;20038;-55
2021/12/16 08:54:33;;;;;;;39.45;18.23;;;7.50;99.90;;;;;;5025693;28;20029;-55
2021/12/16 08:56:59;;;;;;;31.77;16.88;;;7.50;99.90;;;;;;5009769;28;20117;-55
2021/12/16 08:59:25;;;;;;;119.75;18.75;;;7.50;99.90;;;;;;5022168;28;20445;-55
2021/12/16 09:01:54;;;;;;;66.60;16.88;;;7.60;99.90;;;;;;5026238;28;20041;-55
2021/12/16 09:04:23;;;;;;;46.97;15.60;;;7.50;99.90;;;;;;5005377;28;20041;-55
2021/12/16 09:06:53;;;;;;;105.95;17.30;;;7.60;99.90;;;;;;5019726;28;20049;-55
2021/12/16 09:09:18;;;;;;;71.53;15.95;;;7.60;99.90;;;;;;5022233;28;20034;-55
2021/12/16 09:12:02;;;;;;;72.90;18.02;;;7.60;99.90;;;;;;5026905;28;20515;-55
2021/12/16 09:14:32;;;;;;;85.40;16.42;;;7.60;99.90;;;;;;5020469;28;20096;-55
2021/12/16 09:16:57;;;;;;;110.20;17.23;;;7.60;99.90;;;;;;5003041;28;20049;-55
2021/12/16 09:19:23;;;;;;;33.30;15.75;;;7.60;99.90;;;;;;5021283;28;20037;-55
2021/12/16 09:21:49;;;;;;;81.57;17.05;;;7.60;99.90;;;;;;5020689;28;20037;-55
2021/12/16 09:24:15;;;;;;;75.38;17.70;;;7.70;99.90;;;;;;5021918;28;20041;-55
2021/12/16 09:26:42;;;;;;;32.42;15.93;;;7.70;99.90;;;;;;5023470;28;20493;-55
2021/12/16 09:29:08;;;;;;;35.08;16.20;;;7.70;99.90;;;;;;5022745;28;20044;-55
2021/12/16 09:31:34;;;;;;;38.17;15.82;;;7.70;99.90;;;;;;5022940;28;20037;-55
2021/12/16 09:34:07;;;;;;;36.28;15.02;;;7.70;99.90;;;;;;5028839;28;20087;-55
2021/12/16 09:36:35;;;;;;;42.78;15.75;;;7.80;99.90;;;;;;5029581;28;20069;-55
2021/12/16 09:39:03;;;;;;;50.65;15.23;;;7.80;99.90;;;;;;5022648;28;20535;-55
2021/12/16 09:41:29;;;;;;;41.17;15.65;;;7.80;99.90;;;;;;5021541;28;20461;-55
2021/12/16 09:43:56;;;;;;;30.35;16.17;;;7.80;99.90;;;;;;5022166;28;20040;-55
2021/12/16 09:46:25;;;;;;;50.78;18.20;;;7.80;99.90;;;;;;5027411;28;20167;-55
2021/12/16 09:48:51;;;;;;;44.30;19.48;;;7.90;99.90;;;;;;5031213;28;20029;-55
2021/12/16 09:51:23;;;;;;;38.38;18.60;;;7.80;99.90;;;;;;5030778;28;20071;-55
2021/12/16 09:53:52;;;;;;;68.43;19.70;;;7.80;99.90;;;;;;5030851;28;20047;-55
2021/12/16 09:56:18;;;;;;;65.15;19.17;;;7.90;99.90;;;;;;5029806;28;20029;-55
2021/12/16 09:58:48;;;;;;;26.73;16.40;;;7.90;99.90;;;;;;5028900;28;20052;-55
2021/12/16 10:01:15;;;;;;;49.67;16.42;;;7.90;99.90;;;;;;5031352;28;20507;-55
2021/12/16 10:03:45;;;;;;;55.22;16.15;;;7.90;99.90;;;;;;5029460;28;20068;-55
2021/12/16 10:06:11;;;;;;;29.42;16.10;;;7.90;99.90;;;;;;5031909;28;20426;-55
2021/12/16 10:08:37;;;;;;;26.52;15.23;;;8.00;99.90;;;;;;5031620;28;20460;-55
2021/12/16 10:11:04;;;;;;;31.73;15.82;;;8.00;99.90;;;;;;5030132;28;20068;-55
2021/12/16 10:13:48;;;;;;;34.38;14.88;;;8.00;99.90;;;;;;5013456;28;20058;-55
2021/12/16 10:18:59;;;;;;;32.10;15.40;;;8.00;99.90;;;;;;5014542;28;20497;-55
2021/12/16 10:21:27;;;;;;;22.65;15.07;;;8.10;99.90;;;;;;5031173;28;20084;-56
2021/12/16 10:23:53;;;;;;;24.48;15.35;;;8.00;99.90;;;;;;5031609;28;20130;-56
2021/12/16 10:26:22;;;;;;;52.50;16.35;;;8.10;99.90;;;;;;5031444;28;20512;-57
2021/12/16 10:28:52;;;;;;;37.30;15.32;;;8.10;99.90;;;;;;5031000;28;20075;-56
2021/12/16 10:31:24;;;;;;;21.65;13.82;;;8.10;99.90;;;;;;5027993;28;20068;-56
2021/12/16 10:33:51;;;;;;;24.83;14.90;;;8.00;99.90;;;;;;5021039;28;20034;-56
2021/12/16 10:36:37;;;;;;;32.20;15.55;;;8.10;99.90;;;;;;5026884;28;20073;-56
2021/12/16 10:39:19;;;;;;;55.30;15.82;;;8.10;99.90;;;;;;5023970;28;20450;-56
2021/12/16 10:41:57;;;;;;;54.03;16.40;;;8.10;99.90;;;;;;5013403;28;20049;-56
2021/12/16 10:44:33;;;;;;;43.38;14.70;;;8.10;99.90;;;;;;5029838;28;20507;-56
2021/12/16 10:47:00;;;;;;;83.32;16.35;;;8.20;99.90;;;;;;5032222;28;20046;-56
2021/12/16 10:49:52;;;;;;;49.85;15.20;;;8.10;99.90;;;;;;5034871;28;20049;-56
2021/12/16 10:52:23;;;;;;;44.13;16.30;;;8.10;99.90;;;;;;5034839;28;20049;-56
2021/12/16 10:54:50;;;;;;;42.58;15.13;;;8.10;99.90;;;;;;5007653;28;20466;-56
2021/12/16 10:57:19;;;;;;;52.30;16.20;;;8.10;99.90;;;;;;5035132;28;20033;-56
2021/12/16 10:59:52;;;;;;;55.92;15.48;;;8.20;99.90;;;;;;5034027;28;20041;-56
2021/12/16 11:02:33;;;;;;;38.60;14.40;;;8.20;99.90;;;;;;5032903;28;20033;-56
2021/12/16 11:05:16;;;;;;;26.27;14.85;;;8.20;99.90;;;;;;5033827;28;20047;-56
2021/12/16 11:07:43;;;;;;;;;;;8.20;99.90;;;;;;5033401;28;20536;-56
2021/12/16 11:10:13;;;;;;;33.88;15.32;;;8.20;99.90;;;;;;5009443;28;19917;-56
2021/12/16 11:12:49;;;;;;;53.42;15.40;;;8.30;99.90;;;;;;5032688;28;20144;-56
2021/12/16 11:15:15;;;;;;;86.68;16.90;;;8.30;99.90;;;;;;5020915;28;20040;-56
2021/12/16 11:17:45;;;;;;;54.58;16.38;;;8.30;99.90;;;;;;5019894;28;20033;-56
2021/12/16 11:20:29;;;;;;;44.25;16.08;;;8.30;99.90;;;;;;5020690;28;20065;-56
2021/12/16 11:22:59;;;;;;;38.40;17.20;;;8.30;99.90;;;;;;5022760;28;20528;-56
2021/12/16 11:25:38;;;;;;;41.45;17.45;;;8.40;99.90;;;;;;5028585;28;20069;-56
2021/12/16 11:28:28;;;;;;;51.60;16.73;;;8.40;99.90;;;;;;5019753;28;20124;-56
2021/12/16 11:31:12;;;;;;;71.72;16.08;;;8.40;99.90;;;;;;5019755;28;20112;-56
2021/12/16 11:33:44;;;;;;;59.42;16.98;;;8.50;99.90;;;;;;5023245;28;20046;-56
2021/12/16 11:36:31;;;;;;;42.03;16.93;;;8.50;99.90;;;;;;5018593;28;20037;-56
2021/12/16 11:39:24;;;;;;;53.83;17.15;;;8.50;99.90;;;;;;5018349;28;20042;-56
2021/12/16 11:42:08;;;;;;;38.97;17.38;;;8.50;99.90;;;;;;5024221;28;20070;-56
2021/12/16 11:44:38;;;;;;;34.70;15.95;;;8.50;99.90;;;;;;5032136;28;20044;-56
2021/12/16 11:47:10;;;;;;;50.80;17.42;;;8.50;99.90;;;;;;5028443;28;20080;-56
2021/12/16 11:49:51;;;;;;;;;;;8.60;99.90;;;;;;5027246;28;20048;-56
2021/12/16 11:52:18;;;;;;;31.05;16.23;;;8.50;99.90;;;;;;5022624;28;19929;-56
2021/12/16 11:54:48;;;;;;;34.28;16.33;;;8.60;99.90;;;;;;5029546;28;20061;-56
2021/12/16 11:57:18;;;;;;;30.35;15.70;;;8.60;99.90;;;;;;5025980;28;20037;-56
2021/12/16 11:59:59;;;;;;;35.75;15.65;;;8.60;99.90;;;;;;5019389;28;20037;-56
2021/12/16 12:02:36;;;;;;;30.48;15.60;;;8.60;99.90;;;;;;5023385;28;20048;-55
2021/12/16 12:05:28;;;;;;;27.88;15.77;;;8.60;99.90;;;;;;5014831;28;20041;-56
2021/12/16 12:08:22;;;;;;;24.83;14.35;;;8.60;99.90;;;;;;5007933;28;20440;-55
2021/12/16 12:11:12;;;;;;;23.95;13.80;;;8.60;99.90;;;;;;5024510;28;20034;-56
2021/12/16 12:13:45;;;;;;;26.63;16.23;;;8.60;99.90;;;;;;5031323;28;20041;-54
2021/12/16 12:16:21;;;;;;;43.17;15.07;;;8.60;99.90;;;;;;5028590;28;20034;-57
2021/12/16 12:18:46;;;;;;;36.58;14.65;;;8.60;99.90;;;;;;4986860;28;20120;-57
2021/12/16 12:21:17;;;;;;;36.80;14.88;;;8.60;99.90;;;;;;5002942;28;20124;-57
2021/12/16 12:23:44;;;;;;;27.50;15.90;;;8.60;99.90;;;;;;5006917;28;20047;-55
2021/12/16 12:26:16;;;;;;;50.33;14.85;;;8.60;99.90;;;;;;5007404;28;20046;-56
2021/12/16 12:28:44;;;;;;;31.00;16.15;;;8.50;99.90;;;;;;5021917;28;20048;-56
2021/12/16 12:31:10;;;;;;;41.30;15.63;;;8.60;99.90;;;;;;5018208;28;20053;-56
2021/12/16 12:33:36;;;;;;;24.80;15.70;;;8.60;99.90;;;;;;5023823;28;20042;-55
2021/12/16 12:36:03;;;;;;;26.15;15.25;;;8.60;99.90;;;;;;5019410;28;20038;-56
2021/12/16 12:38:29;;;;;;;31.05;16.75;;;8.60;99.90;;;;;;5019923;28;20076;-55
2021/12/16 12:40:55;;;;;;;38.55;16.77;;;8.70;99.90;;;;;;5018999;28;20112;-56
2021/12/16 12:43:22;;;;;;;38.35;16.35;;;8.70;99.90;;;;;;5022422;28;20041;-56
2021/12/16 12:45:49;;;;;;;33.75;16.85;;;8.70;99.90;;;;;;5019593;28;20128;-56
2021/12/16 12:48:18;;;;;;;31.65;16.60;;;8.70;99.90;;;;;;5019770;28;20037;-55
2021/12/16 12:50:47;;;;;;;35.95;16.88;;;8.70;99.90;;;;;;5030249;28;20041;-55
2021/12/16 12:53:23;;;;;;;31.83;17.35;;;8.70;99.90;;;;;;5018562;28;20034;-55
2021/12/16 12:55:51;;;;;;;32.63;15.73;;;8.70;99.90;;;;;;5003479;28;20080;-55
2021/12/16 12:58:20;;;;;;;32.28;15.63;;;8.70;99.90;;;;;;5021650;28;20038;-55
2021/12/16 13:00:47;;;;;;;28.20;16.13;;;8.70;99.90;;;;;;5018912;28;20076;-54
2021/12/16 13:03:17;;;;;;;40.83;16.90;;;8.80;99.90;;;;;;5023169;28;20375;-55
2021/12/16 13:06:08;;;;;;;27.45;16.50;;;8.70;99.90;;;;;;5026516;28;20493;-54
2021/12/16 13:08:46;;;;;;;36.60;16.25;;;8.70;99.90;;;;;;5020032;28;20041;-55
2021/12/16 13:11:26;;;;;;;71.35;17.02;;;8.70;99.90;;;;;;5025426;28;20041;-55
2021/12/16 13:14:22;;;;;;;59.35;16.67;;;8.70;99.90;;;;;;5023583;28;20179;-53
2021/12/16 13:26:11;;;;;;;27.67;14.02;;;8.50;99.90;;;;;;5031293;28;20045;-56
2021/12/16 13:31:04;;;;;;;62.95;15.05;;;8.50;99.90;;;;;;5015700;28;20050;-54
2021/12/16 13:33:40;;;;;;;79.70;15.63;;;8.50;99.90;;;;;;5025517;28;20042;-55
2021/12/16 13:36:15;;;;;;;67.72;15.23;;;8.50;99.90;;;;;;5027531;28;20034;-55
2021/12/16 13:38:46;;;;;;;71.50;14.80;;;8.50;99.90;;;;;;5022441;28;20068;-53
2021/12/16 13:41:16;;;;;;;76.85;13.27;;;8.50;99.90;;;;;;5030147;28;20603;-56
2021/12/16 13:43:58;;;;;;;95.53;14.52;;;8.40;99.90;;;;;;5030135;28;20405;-56
2021/12/16 13:46:35;;;;;;;107.43;14.50;;;8.40;99.90;;;;;;5031144;28;20041;-56
2021/12/16 14:03:04;;;;;;;45.03;12.90;;;8.20;99.90;;;;;;5017727;28;20042;-56
2021/12/16 14:05:46;;;;;;;58.28;13.82;;;8.20;99.90;;;;;;5022552;28;20096;-56
2021/12/16 14:08:30;;;;;;;55.50;12.73;;;8.20;99.90;;;;;;5025657;28;20073;-55
2021/12/16 14:11:00;;;;;;;54.10;13.75;;;8.20;99.90;;;;;;5020794;28;20033;-55
2021/12/16 14:36:35;;;;;;;71.35;17.42;;;8.30;99.90;;;;;;5007202;28;20056;-51
2021/12/16 14:46:47;;;;;;;41.40;13.75;;;8.30;99.90;;;;;;5004128;28;20046;-51
2021/12/16 14:49:13;;;;;;;45.55;12.38;;;8.30;99.90;;;;;;4985768;28;20042;-51
2021/12/16 14:51:39;;;;;;;35.30;11.75;;;8.30;99.90;;;;;;5011762;28;20041;-51
2021/12/16 14:54:07;;;;;;;68.13;12.63;;;8.30;99.90;;;;;;5008350;28;20076;-51
2021/12/16 14:56:37;;;;;;;55.65;12.13;;;8.30;99.90;;;;;;5009493;28;20042;-51
2021/12/16 14:59:08;;;;;;;33.38;11.57;;;8.30;99.90;;;;;;5010393;28;20482;-51
2021/12/16 15:01:37;;;;;;;35.80;11.60;;;8.30;99.90;;;;;;5003929;28;20035;-51
2021/12/16 15:04:06;;;;;;;29.35;11.55;;;8.30;99.90;;;;;;5007479;28;20034;-51
2021/12/16 15:06:44;;;;;;;47.97;11.52;;;8.30;99.90;;;;;;5008215;28;20052;-53
2021/12/16 15:09:23;;;;;;;45.33;11.80;;;8.30;99.90;;;;;;5001553;28;20057;-51
2021/12/16 15:12:20;;;;;;;42.35;12.52;;;8.30;99.90;;;;;;4997712;28;20109;-51
2021/12/16 15:42:53;;;;;;;34.03;11.65;;;8.30;99.90;;;;;;5013754;28;20042;-51
2021/12/16 15:45:23;;;;;;;30.52;12.95;;;8.30;99.90;;;;;;5010925;28;20061;-48
2021/12/16 15:47:58;;;;;;;41.97;13.60;;;8.30;99.90;;;;;;5013786;28;20041;-50
2021/12/16 15:50:34;;;;;;;34.25;12.70;;;8.30;99.90;;;;;;5007778;28;20567;-48
2021/12/16 15:53:02;;;;;;;52.85;15.75;;;8.30;99.90;;;;;;4958058;28;20053;-52
2021/12/16 15:55:30;;;;;;;42.58;14.88;;;8.30;99.90;;;;;;5005968;28;20046;-49
2021/12/16 15:58:03;;;;;;;69.57;14.55;;;8.30;99.90;;;;;;4983555;28;20062;-51
2021/12/16 16:00:29;;;;;;;42.15;15.38;;;8.30;99.90;;;;;;5006184;28;20569;-53
2021/12/16 16:03:00;;;;;;;52.10;15.75;;;8.30;99.90;;;;;;4996403;28;20038;-49
2021/12/16 16:05:42;;;;;;;52.43;16.03;;;8.30;99.90;;;;;;5006670;28;20052;-49
2021/12/16 16:08:11;;;;;;;65.75;16.50;;;8.30;99.90;;;;;;5001944;28;20273;-52
2021/12/16 16:10:38;;;;;;;45.63;16.02;;;8.30;99.90;;;;;;5003476;28;20053;-50
2021/12/16 16:13:17;;;;;;;37.60;15.02;;;8.30;99.90;;;;;;4997671;28;20513;-52
2021/12/16 16:15:45;;;;;;;43.33;15.48;;;8.30;99.90;;;;;;5006300;28;20143;-50
2021/12/16 16:21:12;;;;;;;68.57;16.42;;;8.20;99.90;;;;;;5001591;28;20558;-51
2021/12/16 16:23:40;;;;;;;41.65;15.57;;;8.20;99.90;;;;;;5000634;28;20046;-49
2021/12/16 16:26:12;;;;;;;40.65;15.25;;;8.20;99.90;;;;;;5005141;28;20041;-48
2021/12/16 16:28:41;;;;;;;66.20;15.60;;;8.20;99.90;;;;;;5009472;28;20128;-53
2021/12/16 16:31:09;;;;;;;41.28;16.13;;;8.20;99.90;;;;;;5002242;28;20303;-53
2021/12/16 16:33:36;;;;;;;91.22;18.05;;;8.30;99.90;;;;;;5012631;28;20397;-53
2021/12/16 16:36:15;;;;;;;83.10;19.08;;;8.20;99.90;;;;;;5026061;28;20038;-51
2021/12/16 16:38:52;;;;;;;101.88;18.98;;;8.20;99.90;;;;;;5005906;28;20041;-50
2021/12/16 16:41:20;;;;;;;51.47;17.02;;;8.20;99.90;;;;;;5001589;28;20039;-52
2021/12/16 16:44:03;;;;;;;51.28;17.98;;;8.20;99.90;;;;;;5012028;28;20061;-54
2021/12/16 16:46:41;;;;;;;44.92;16.83;;;8.20;99.90;;;;;;4994139;28;20505;-53
2021/12/16 16:49:13;;;;;;;72.97;17.33;;;8.20;99.90;;;;;;5004904;28;20448;-53
2021/12/16 16:51:40;;;;;;;;;;;8.20;99.90;;;;;;4995470;28;20041;-50
2021/12/16 16:54:09;;;;;;;36.95;15.95;;;8.30;99.90;;;;;;5012561;28;20391;-54
2021/12/16 16:56:46;;;;;;;48.42;17.10;;;8.30;99.90;;;;;;4994013;28;20520;-51